sensor_id;sensor_type;location;lat;lon;timestamp;pressure;altitude;pressure_sealevel;temperature;humidity
15670;BME280;18524;45.190;5.732;2023-03-25T00:01:59;99291.53;;;13.61;100.00
15670;BME280;18524;45.190;5.732;2023-03-25T00:06:49;99297.06;;;13.58;100.00
15670;BME280;18524;45.190;5.732;2023-03-25T00:11:40;99290.00;;;13.59;100.00
15670;BME280;18524;45.190;5.732;2023-03-25T00:16:30;99307.06;;;13.55;100.00
15670;BME280;18524;45.190;5.732;2023-03-25T00:21:21;99304.97;;;13.49;100.00
15670;BME280;18524;45.190;5.732;2023-03-25T00:26:12;99316.59;;;13.36;100.00
15670;BME280;18524;45.190;5.732;2023-03-25T00:31:06;99315.50;;;13.29;100.00
15670;BME280;18524;45.190;5.732;2023-03-25T00:35:57;99323.94;;;13.23;100.00
15670;BME280;18524;45.190;5.732;2023-03-25T00:40:48;99322.53;;;13.19;100.00
15670;BME280;18524;45.190;5.732;2023-03-25T00:45:38;99322.38;;;13.11;100.00
15670;BME280;18524;45.190;5.732;2023-03-25T00:50:29;99321.00;;;13.17;100.00
15670;BME280;18524;45.190;5.732;2023-03-25T00:55:19;99330.53;;;13.08;100.00
15670;BME280;18524;45.190;5.732;2023-03-25T01:00:13;99316.00;;;13.13;100.00
15670;BME280;18524;45.190;5.732;2023-03-25T01:05:07;99323.34;;;13.10;100.00
15670;BME280;18524;45.190;5.732;2023-03-25T01:09:59;99325.09;;;13.00;100.00
15670;BME280;18524;45.190;5.732;2023-03-25T01:14:50;99328.69;;;12.99;100.00
15670;BME280;18524;45.190;5.732;2023-03-25T01:19:40;99331.59;;;12.96;100.00
15670;BME280;18524;45.190;5.732;2023-03-25T01:24:31;99331.31;;;12.99;100.00
15670;BME280;18524;45.190;5.732;2023-03-25T01:29:21;99328.13;;;12.95;100.00
15670;BME280;18524;45.190;5.732;2023-03-25T01:34:13;99337.69;;;12.96;100.00
15670;BME280;18524;45.190;5.732;2023-03-25T01:39:03;99336.16;;;12.94;100.00
15670;BME280;18524;45.190;5.732;2023-03-25T01:49:05;99342.75;;;12.78;100.00
15670;BME280;18524;45.190;5.732;2023-03-25T01:53:56;99346.38;;;12.87;100.00
15670;BME280;18524;45.190;5.732;2023-03-25T01:58:48;99331.84;;;12.83;100.00
15670;BME280;18524;45.190;5.732;2023-03-25T02:03:41;99340.84;;;12.80;100.00
15670;BME280;18524;45.190;5.732;2023-03-25T02:08:38;99343.88;;;12.76;100.00
15670;BME280;18524;45.190;5.732;2023-03-25T02:13:29;99349.25;;;12.74;100.00
15670;BME280;18524;45.190;5.732;2023-03-25T02:18:30;99349.13;;;12.76;100.00
15670;BME280;18524;45.190;5.732;2023-03-25T02:28:54;99350.34;;;12.72;100.00
15670;BME280;18524;45.190;5.732;2023-03-25T02:44:09;99324.59;;;12.75;100.00
15670;BME280;18524;45.190;5.732;2023-03-25T02:49:15;99330.00;;;12.74;100.00
15670;BME280;18524;45.190;5.732;2023-03-25T02:54:11;99328.22;;;12.74;100.00
15670;BME280;18524;45.190;5.732;2023-03-25T02:59:03;99334.88;;;12.78;100.00
15670;BME280;18524;45.190;5.732;2023-03-25T03:03:55;99339.00;;;12.71;100.00
15670;BME280;18524;45.190;5.732;2023-03-25T03:09:51;99342.50;;;12.81;100.00
15670;BME280;18524;45.190;5.732;2023-03-25T03:29:15;99346.59;;;12.65;100.00
15670;BME280;18524;45.190;5.732;2023-03-25T03:34:17;99328.53;;;12.60;100.00
15670;BME280;18524;45.190;5.732;2023-03-25T03:39:22;99326.03;;;12.59;100.00
15670;BME280;18524;45.190;5.732;2023-03-25T03:44:18;99327.81;;;12.48;100.00
15670;BME280;18524;45.190;5.732;2023-03-25T03:49:14;99326.53;;;12.43;100.00
15670;BME280;18524;45.190;5.732;2023-03-25T03:54:17;99330.41;;;12.39;100.00
15670;BME280;18524;45.190;5.732;2023-03-25T03:59:13;99339.94;;;12.40;100.00
15670;BME280;18524;45.190;5.732;2023-03-25T04:04:07;99334.16;;;12.46;100.00
15670;BME280;18524;45.190;5.732;2023-03-25T04:09:07;99335.47;;;12.31;100.00
15670;BME280;18524;45.190;5.732;2023-03-25T04:13:59;99352.91;;;12.32;100.00
15670;BME280;18524;45.190;5.732;2023-03-25T04:18:52;99336.75;;;12.15;100.00
15670;BME280;18524;45.190;5.732;2023-03-25T04:23:42;99356.63;;;12.08;100.00
15670;BME280;18524;45.190;5.732;2023-03-25T04:28:35;99343.47;;;12.08;100.00
15670;BME280;18524;45.190;5.732;2023-03-25T04:33:26;99342.66;;;12.08;100.00
15670;BME280;18524;45.190;5.732;2023-03-25T04:38:21;99340.41;;;12.03;100.00
15670;BME280;18524;45.190;5.732;2023-03-25T04:43:15;99358.81;;;12.03;100.00
15670;BME280;18524;45.190;5.732;2023-03-25T04:48:05;99366.13;;;12.00;100.00
15670;BME280;18524;45.190;5.732;2023-03-25T04:52:56;99369.38;;;11.92;100.00
15670;BME280;18524;45.190;5.732;2023-03-25T04:57:49;99384.19;;;11.93;100.00
15670;BME280;18524;45.190;5.732;2023-03-25T05:02:46;99397.34;;;11.93;100.00
15670;BME280;18524;45.190;5.732;2023-03-25T05:07:37;99401.06;;;11.91;100.00
15670;BME280;18524;45.190;5.732;2023-03-25T05:12:27;99400.22;;;11.90;100.00
15670;BME280;18524;45.190;5.732;2023-03-25T05:17:18;99410.13;;;11.86;100.00
15670;BME280;18524;45.190;5.732;2023-03-25T05:22:08;99406.78;;;11.84;100.00
15670;BME280;18524;45.190;5.732;2023-03-25T05:26:59;99404.88;;;11.86;100.00
15670;BME280;18524;45.190;5.732;2023-03-25T05:31:51;99411.81;;;11.76;100.00
15670;BME280;18524;45.190;5.732;2023-03-25T05:36:41;99421.25;;;11.79;100.00
15670;BME280;18524;45.190;5.732;2023-03-25T05:41:32;99414.66;;;11.84;100.00
15670;BME280;18524;45.190;5.732;2023-03-25T05:46:27;99418.25;;;11.83;100.00
15670;BME280;18524;45.190;5.732;2023-03-25T05:51:21;99418.13;;;11.85;100.00
15670;BME280;18524;45.190;5.732;2023-03-25T05:56:11;99427.44;;;11.89;100.00
15670;BME280;18524;45.190;5.732;2023-03-25T06:01:03;99426.97;;;11.95;100.00
15670;BME280;18524;45.190;5.732;2023-03-25T06:05:53;99425.41;;;11.93;100.00
15670;BME280;18524;45.190;5.732;2023-03-25T06:10:44;99426.38;;;11.92;100.00
15670;BME280;18524;45.190;5.732;2023-03-25T06:15:35;99424.47;;;11.94;100.00
15670;BME280;18524;45.190;5.732;2023-03-25T06:20:28;99443.19;;;12.00;100.00
15670;BME280;18524;45.190;5.732;2023-03-25T06:25:19;99442.09;;;12.03;100.00
15670;BME280;18524;45.190;5.732;2023-03-25T06:30:12;99432.63;;;12.11;100.00
15670;BME280;18524;45.190;5.732;2023-03-25T06:35:04;99446.34;;;12.15;100.00
15670;BME280;18524;45.190;5.732;2023-03-25T06:39:56;99458.00;;;12.01;100.00
15670;BME280;18524;45.190;5.732;2023-03-25T06:44:49;99455.69;;;12.08;100.00
15670;BME280;18524;45.190;5.732;2023-03-25T06:49:39;99464.38;;;12.19;100.00
15670;BME280;18524;45.190;5.732;2023-03-25T06:54:29;99460.94;;;12.40;100.00
15670;BME280;18524;45.190;5.732;2023-03-25T06:59:20;99448.94;;;12.68;100.00
15670;BME280;18524;45.190;5.732;2023-03-25T07:04:10;99452.19;;;13.32;100.00
15670;BME280;18524;45.190;5.732;2023-03-25T07:09:01;99442.22;;;14.05;100.00
15670;BME280;18524;45.190;5.732;2023-03-25T07:13:51;99416.66;;;14.34;94.37
15670;BME280;18524;45.190;5.732;2023-03-25T07:18:43;99423.47;;;14.56;96.67
15670;BME280;18524;45.190;5.732;2023-03-25T07:23:33;99431.88;;;14.89;96.94
15670;BME280;18524;45.190;5.732;2023-03-25T07:28:23;99432.97;;;14.86;96.96
15670;BME280;18524;45.190;5.732;2023-03-25T07:33:14;99433.75;;;14.59;98.64
15670;BME280;18524;45.190;5.732;2023-03-25T07:38:05;99441.41;;;14.24;99.14
15670;BME280;18524;45.190;5.732;2023-03-25T07:42:55;99444.59;;;14.18;100.00
15670;BME280;18524;45.190;5.732;2023-03-25T07:47:46;99450.41;;;14.40;98.99
15670;BME280;18524;45.190;5.732;2023-03-25T07:52:39;99450.56;;;14.49;96.50
15670;BME280;18524;45.190;5.732;2023-03-25T07:57:29;99455.00;;;14.58;94.11
15670;BME280;18524;45.190;5.732;2023-03-25T08:02:20;99456.78;;;14.67;92.59
15670;BME280;18524;45.190;5.732;2023-03-25T08:07:10;99454.41;;;14.74;91.92
15670;BME280;18524;45.190;5.732;2023-03-25T08:12:01;99463.75;;;14.68;90.15
15670;BME280;18524;45.190;5.732;2023-03-25T08:16:51;99460.97;;;14.69;91.97
15670;BME280;18524;45.190;5.732;2023-03-25T08:21:42;99468.75;;;14.61;92.65
15670;BME280;18524;45.190;5.732;2023-03-25T08:26:33;99464.88;;;14.56;93.34
15670;BME280;18524;45.190;5.732;2023-03-25T08:31:25;99475.16;;;14.59;93.43
15670;BME280;18524;45.190;5.732;2023-03-25T08:36:15;99470.66;;;14.79;89.54
15670;BME280;18524;45.190;5.732;2023-03-25T08:41:08;99482.28;;;15.05;84.17
15670;BME280;18524;45.190;5.732;2023-03-25T08:45:59;99489.38;;;15.42;85.12
15670;BME280;18524;45.190;5.732;2023-03-25T08:50:49;99474.41;;;15.70;86.16
15670;BME280;18524;45.190;5.732;2023-03-25T08:55:40;99491.84;;;15.80;84.70
15670;BME280;18524;45.190;5.732;2023-03-25T09:00:30;99490.28;;;15.87;83.16
15670;BME280;18524;45.190;5.732;2023-03-25T09:05:21;99483.69;;;16.37;80.80
15670;BME280;18524;45.190;5.732;2023-03-25T09:10:11;99475.34;;;17.19;77.40
15670;BME280;18524;45.190;5.732;2023-03-25T09:15:02;99479.03;;;17.60;76.30
15670;BME280;18524;45.190;5.732;2023-03-25T09:19:53;99480.22;;;17.32;77.85
15670;BME280;18524;45.190;5.732;2023-03-25T09:24:43;99469.28;;;17.01;76.68
15670;BME280;18524;45.190;5.732;2023-03-25T09:29:34;99458.13;;;16.89;76.98
15670;BME280;18524;45.190;5.732;2023-03-25T09:34:26;99460.34;;;17.02;74.98
15670;BME280;18524;45.190;5.732;2023-03-25T09:39:17;99467.28;;;17.03;75.68
15670;BME280;18524;45.190;5.732;2023-03-25T09:49:14;99465.59;;;16.94;72.71
15670;BME280;18524;45.190;5.732;2023-03-25T09:54:24;99459.56;;;16.83;70.88
15670;BME280;18524;45.190;5.732;2023-03-25T10:10:06;99443.63;;;17.35;64.55
15670;BME280;18524;45.190;5.732;2023-03-25T10:25:26;99430.56;;;18.17;59.69
15670;BME280;18524;45.190;5.732;2023-03-25T10:30:31;99434.22;;;18.56;56.61
15670;BME280;18524;45.190;5.732;2023-03-25T10:35:27;99436.41;;;18.69;52.19
15670;BME280;18524;45.190;5.732;2023-03-25T10:40:23;99449.69;;;18.69;53.52
15670;BME280;18524;45.190;5.732;2023-03-25T10:45:16;99435.56;;;18.77;53.02
15670;BME280;18524;45.190;5.732;2023-03-25T10:50:13;99428.38;;;18.93;51.95
15670;BME280;18524;45.190;5.732;2023-03-25T10:55:16;99420.88;;;19.13;51.41
15670;BME280;18524;45.190;5.732;2023-03-25T11:00:15;99427.88;;;19.06;50.82
15670;BME280;18524;45.190;5.732;2023-03-25T11:05:07;99407.78;;;19.03;50.73
15670;BME280;18524;45.190;5.732;2023-03-25T11:10:28;99407.53;;;19.21;50.79
15670;BME280;18524;45.190;5.732;2023-03-25T11:15:22;99408.84;;;19.33;50.04
15670;BME280;18524;45.190;5.732;2023-03-25T11:20:19;99396.81;;;19.77;47.95
15670;BME280;18524;45.190;5.732;2023-03-25T11:25:27;99379.91;;;20.15;47.88
15670;BME280;18524;45.190;5.732;2023-03-25T11:30:20;99383.50;;;20.22;49.77
15670;BME280;18524;45.190;5.732;2023-03-25T11:35:17;99380.53;;;19.94;47.90
15670;BME280;18524;45.190;5.732;2023-03-25T11:40:16;99364.22;;;20.58;46.62
15670;BME280;18524;45.190;5.732;2023-03-25T11:45:19;99358.13;;;21.08;48.50
15670;BME280;18524;45.190;5.732;2023-03-25T11:50:20;99351.38;;;21.78;42.67
15670;BME280;18524;45.190;5.732;2023-03-25T11:55:21;99357.84;;;21.90;37.38
15670;BME280;18524;45.190;5.732;2023-03-25T12:05:14;99362.91;;;21.13;38.53
15670;BME280;18524;45.190;5.732;2023-03-25T12:10:06;99343.22;;;21.14;39.88
15670;BME280;18524;45.190;5.732;2023-03-25T12:25:11;99305.72;;;22.15;35.56
15670;BME280;18524;45.190;5.732;2023-03-25T12:30:24;99306.81;;;22.00;36.24
15670;BME280;18524;45.190;5.732;2023-03-25T12:35:25;99308.72;;;21.63;36.35
15670;BME280;18524;45.190;5.732;2023-03-25T12:50:24;99285.44;;;22.00;34.95
15670;BME280;18524;45.190;5.732;2023-03-25T13:00:55;99275.84;;;21.84;33.69
15670;BME280;18524;45.190;5.732;2023-03-25T13:05:54;99265.63;;;21.66;34.74
15670;BME280;18524;45.190;5.732;2023-03-25T13:10:49;99254.81;;;21.74;34.13
15670;BME280;18524;45.190;5.732;2023-03-25T13:15:47;99248.59;;;21.67;34.06
15670;BME280;18524;45.190;5.732;2023-03-25T13:20:59;99249.75;;;21.58;34.58
15670;BME280;18524;45.190;5.732;2023-03-25T13:25:58;99246.25;;;21.58;35.01
15670;BME280;18524;45.190;5.732;2023-03-25T13:30:49;99248.66;;;21.52;36.98
15670;BME280;18524;45.190;5.732;2023-03-25T13:35:52;99248.72;;;21.38;37.08
15670;BME280;18524;45.190;5.732;2023-03-25T13:40:50;99248.78;;;21.23;37.52
15670;BME280;18524;45.190;5.732;2023-03-25T13:45:54;99251.72;;;21.28;36.09
15670;BME280;18524;45.190;5.732;2023-03-25T13:50:47;99251.81;;;21.20;35.67
15670;BME280;18524;45.190;5.732;2023-03-25T13:55:43;99253.66;;;20.83;36.47
15670;BME280;18524;45.190;5.732;2023-03-25T14:10:50;99252.84;;;20.53;37.18
15670;BME280;18524;45.190;5.732;2023-03-25T14:15:54;99246.31;;;20.56;36.77
15670;BME280;18524;45.190;5.732;2023-03-25T14:20:46;99249.91;;;20.48;37.29
15670;BME280;18524;45.190;5.732;2023-03-25T14:25:39;99242.63;;;20.57;37.35
15670;BME280;18524;45.190;5.732;2023-03-25T14:30:32;99229.69;;;20.54;36.55
15670;BME280;18524;45.190;5.732;2023-03-25T14:45:37;99218.91;;;20.33;37.54
15670;BME280;18524;45.190;5.732;2023-03-25T14:50:31;99222.03;;;20.21;38.30
15670;BME280;18524;45.190;5.732;2023-03-25T14:55:30;99222.31;;;20.12;37.86
15670;BME280;18524;45.190;5.732;2023-03-25T15:00:33;99214.19;;;20.05;37.67
15670;BME280;18524;45.190;5.732;2023-03-25T15:05:26;99225.03;;;20.04;38.52
15670;BME280;18524;45.190;5.732;2023-03-25T15:10:26;99222.19;;;20.05;38.30
15670;BME280;18524;45.190;5.732;2023-03-25T15:15:27;99226.78;;;19.96;36.80
15670;BME280;18524;45.190;5.732;2023-03-25T15:25:14;99210.78;;;19.82;38.47
15670;BME280;18524;45.190;5.732;2023-03-25T15:30:16;99217.78;;;19.83;38.46
15670;BME280;18524;45.190;5.732;2023-03-25T15:35:36;99207.41;;;19.73;40.08
15670;BME280;18524;45.190;5.732;2023-03-25T15:56:26;99202.13;;;19.42;42.64
15670;BME280;18524;45.190;5.732;2023-03-25T16:01:35;99186.94;;;19.28;42.80
15670;BME280;18524;45.190;5.732;2023-03-25T16:06:30;99207.84;;;19.31;39.60
15670;BME280;18524;45.190;5.732;2023-03-25T16:16:13;99199.94;;;19.00;40.07
15670;BME280;18524;45.190;5.732;2023-03-25T16:21:05;99189.69;;;18.89;40.17
15670;BME280;18524;45.190;5.732;2023-03-25T16:25:55;99180.66;;;18.75;40.90
15670;BME280;18524;45.190;5.732;2023-03-25T16:30:51;99176.25;;;18.59;41.26
15670;BME280;18524;45.190;5.732;2023-03-25T16:35:48;99156.31;;;18.55;41.33
15670;BME280;18524;45.190;5.732;2023-03-25T16:40:42;99163.81;;;18.52;41.76
15670;BME280;18524;45.190;5.732;2023-03-25T16:45:33;99156.06;;;18.42;41.76
15670;BME280;18524;45.190;5.732;2023-03-25T16:50:24;99157.44;;;18.30;42.61
15670;BME280;18524;45.190;5.732;2023-03-25T16:55:28;99160.28;;;18.20;42.69
15670;BME280;18524;45.190;5.732;2023-03-25T17:00:22;99156.97;;;18.18;42.78
15670;BME280;18524;45.190;5.732;2023-03-25T17:05:17;99154.66;;;18.15;46.23
15670;BME280;18524;45.190;5.732;2023-03-25T17:15:07;99162.03;;;17.97;44.93
15670;BME280;18524;45.190;5.732;2023-03-25T17:20:05;99161.25;;;17.88;44.33
15670;BME280;18524;45.190;5.732;2023-03-25T17:25:13;99154.13;;;17.72;44.86
15670;BME280;18524;45.190;5.732;2023-03-25T17:30:20;99150.47;;;17.73;45.14
15670;BME280;18524;45.190;5.732;2023-03-25T17:35:29;99141.03;;;17.63;45.34
15670;BME280;18524;45.190;5.732;2023-03-25T17:40:25;99153.63;;;17.53;44.78
15670;BME280;18524;45.190;5.732;2023-03-25T17:45:16;99152.78;;;17.44;45.30
15670;BME280;18524;45.190;5.732;2023-03-25T17:50:15;99141.22;;;17.37;45.97
15670;BME280;18524;45.190;5.732;2023-03-25T17:55:06;99146.34;;;17.30;46.30
15670;BME280;18524;45.190;5.732;2023-03-25T17:59:57;99146.53;;;17.29;47.08
15670;BME280;18524;45.190;5.732;2023-03-25T18:04:47;99143.38;;;17.25;46.41
15670;BME280;18524;45.190;5.732;2023-03-25T18:09:38;99138.09;;;17.17;45.41
15670;BME280;18524;45.190;5.732;2023-03-25T18:14:29;99132.75;;;17.09;46.87
15670;BME280;18524;45.190;5.732;2023-03-25T18:19:25;99122.69;;;17.12;49.82
15670;BME280;18524;45.190;5.732;2023-03-25T18:24:16;99129.28;;;17.00;48.54
15670;BME280;18524;45.190;5.732;2023-03-25T18:29:18;99145.84;;;16.94;52.33
15670;BME280;18524;45.190;5.732;2023-03-25T18:34:09;99153.63;;;16.87;52.67
15670;BME280;18524;45.190;5.732;2023-03-25T18:39:02;99154.94;;;16.75;50.53
15670;BME280;18524;45.190;5.732;2023-03-25T18:43:53;99143.31;;;16.68;50.40
15670;BME280;18524;45.190;5.732;2023-03-25T18:48:43;99141.13;;;16.64;53.03
15670;BME280;18524;45.190;5.732;2023-03-25T18:53:34;99154.69;;;16.61;55.61
15670;BME280;18524;45.190;5.732;2023-03-25T18:58:27;99155.66;;;16.51;55.38
15670;BME280;18524;45.190;5.732;2023-03-25T19:03:20;99148.34;;;16.37;56.36
15670;BME280;18524;45.190;5.732;2023-03-25T19:08:19;99138.75;;;16.44;55.67
15670;BME280;18524;45.190;5.732;2023-03-25T19:13:09;99127.81;;;16.39;53.57
15670;BME280;18524;45.190;5.732;2023-03-25T19:18:00;99121.47;;;16.24;54.88
15670;BME280;18524;45.190;5.732;2023-03-25T19:22:51;99110.03;;;16.15;53.30
15670;BME280;18524;45.190;5.732;2023-03-25T19:27:41;99112.19;;;16.20;55.77
15670;BME280;18524;45.190;5.732;2023-03-25T19:32:32;99111.19;;;16.13;56.60
15670;BME280;18524;45.190;5.732;2023-03-25T19:37:23;99107.22;;;16.09;57.37
15670;BME280;18524;45.190;5.732;2023-03-25T19:42:15;99108.34;;;16.06;59.37
15670;BME280;18524;45.190;5.732;2023-03-25T19:47:07;99106.03;;;16.03;57.54
15670;BME280;18524;45.190;5.732;2023-03-25T19:51:57;99102.00;;;15.91;55.54
15670;BME280;18524;45.190;5.732;2023-03-25T19:56:47;99107.91;;;15.85;57.74
15670;BME280;18524;45.190;5.732;2023-03-25T20:01:38;99110.56;;;15.85;59.43
15670;BME280;18524;45.190;5.732;2023-03-25T20:06:29;99102.44;;;15.78;59.84
15670;BME280;18524;45.190;5.732;2023-03-25T20:11:20;99118.63;;;15.75;59.56
15670;BME280;18524;45.190;5.732;2023-03-25T20:16:10;99120.56;;;15.65;61.03
15670;BME280;18524;45.190;5.732;2023-03-25T20:21:01;99125.44;;;15.60;61.82
15670;BME280;18524;45.190;5.732;2023-03-25T20:25:51;99135.75;;;15.45;61.94
15670;BME280;18524;45.190;5.732;2023-03-25T20:30:42;99145.16;;;15.48;57.22
15670;BME280;18524;45.190;5.732;2023-03-25T20:35:33;99134.91;;;15.45;55.52
15670;BME280;18524;45.190;5.732;2023-03-25T20:40:24;99124.50;;;15.43;56.35
15670;BME280;18524;45.190;5.732;2023-03-25T20:45:16;99125.78;;;15.39;58.90
15670;BME280;18524;45.190;5.732;2023-03-25T20:50:07;99133.16;;;15.27;59.39
15670;BME280;18524;45.190;5.732;2023-03-25T20:54:58;99131.66;;;15.07;58.81
15670;BME280;18524;45.190;5.732;2023-03-25T20:59:49;99119.44;;;15.06;58.77
15670;BME280;18524;45.190;5.732;2023-03-25T21:04:41;99107.13;;;14.97;59.24
15670;BME280;18524;45.190;5.732;2023-03-25T21:09:32;99098.19;;;14.90;59.37
15670;BME280;18524;45.190;5.732;2023-03-25T21:14:22;99102.69;;;14.80;60.62
15670;BME280;18524;45.190;5.732;2023-03-25T21:19:13;99116.94;;;14.69;61.67
15670;BME280;18524;45.190;5.732;2023-03-25T21:24:04;99133.88;;;14.49;63.04
15670;BME280;18524;45.190;5.732;2023-03-25T21:28:55;99143.47;;;14.40;63.90
15670;BME280;18524;45.190;5.732;2023-03-25T21:33:47;99137.63;;;14.46;65.36
15670;BME280;18524;45.190;5.732;2023-03-25T21:38:38;99131.72;;;14.34;66.02
15670;BME280;18524;45.190;5.732;2023-03-25T21:43:30;99136.00;;;14.35;66.37
15670;BME280;18524;45.190;5.732;2023-03-25T21:48:21;99140.91;;;14.30;68.27
15670;BME280;18524;45.190;5.732;2023-03-25T21:53:13;99150.78;;;14.28;69.71
15670;BME280;18524;45.190;5.732;2023-03-25T21:58:07;99152.16;;;14.32;69.16
15670;BME280;18524;45.190;5.732;2023-03-25T22:02:59;99155.84;;;14.39;68.76
15670;BME280;18524;45.190;5.732;2023-03-25T22:07:50;99155.47;;;14.34;69.50
15670;BME280;18524;45.190;5.732;2023-03-25T22:12:40;99155.47;;;14.34;70.33
15670;BME280;18524;45.190;5.732;2023-03-25T22:17:30;99156.25;;;14.45;68.61
15670;BME280;18524;45.190;5.732;2023-03-25T22:22:21;99135.97;;;14.45;68.52
15670;BME280;18524;45.190;5.732;2023-03-25T22:27:11;99131.88;;;14.33;68.89
15670;BME280;18524;45.190;5.732;2023-03-25T22:32:02;99120.72;;;14.12;69.91
15670;BME280;18524;45.190;5.732;2023-03-25T22:36:56;99114.97;;;13.98;70.12
15670;BME280;18524;45.190;5.732;2023-03-25T22:41:46;99117.31;;;14.01;70.60
15670;BME280;18524;45.190;5.732;2023-03-25T22:46:36;99135.28;;;13.88;71.56
15670;BME280;18524;45.190;5.732;2023-03-25T22:51:29;99114.44;;;13.95;69.73
15670;BME280;18524;45.190;5.732;2023-03-25T22:56:19;99111.09;;;13.93;69.39
15670;BME280;18524;45.190;5.732;2023-03-25T23:01:19;99081.75;;;14.05;69.33
15670;BME280;18524;45.190;5.732;2023-03-25T23:06:11;99065.84;;;13.97;69.92
15670;BME280;18524;45.190;5.732;2023-03-25T23:11:07;99039.91;;;13.93;70.25
15670;BME280;18524;45.190;5.732;2023-03-25T23:16:00;99026.81;;;13.83;72.10
15670;BME280;18524;45.190;5.732;2023-03-25T23:20:51;99033.22;;;13.71;72.21
15670;BME280;18524;45.190;5.732;2023-03-25T23:25:42;99043.91;;;13.69;73.38
15670;BME280;18524;45.190;5.732;2023-03-25T23:30:32;99034.31;;;13.78;72.79
15670;BME280;18524;45.190;5.732;2023-03-25T23:35:23;99047.44;;;13.88;71.88
15670;BME280;18524;45.190;5.732;2023-03-25T23:40:13;99045.94;;;13.85;73.46
15670;BME280;18524;45.190;5.732;2023-03-25T23:45:04;99055.81;;;13.83;72.93
15670;BME280;18524;45.190;5.732;2023-03-25T23:49:54;99060.94;;;13.75;72.92
15670;BME280;18524;45.190;5.732;2023-03-25T23:54:47;99071.72;;;13.91;74.94
15670;BME280;18524;45.190;5.732;2023-03-25T23:59:37;99073.75;;;13.97;76.10
